In Rescue
 
Open Full Screen Window  High Contrast Mode
Wind Gusting 00 knots
06
October 19, 2019 12:57 PM EDT
Weather Information
Wind Direction
  190 °
Wind Speed
  06 kt (7 mph)
Wind Gust
  00 kt (0 mph)
Altimeter
29.95 in
Visibility
10 SM
Temperature
18° C
64° F
Dewpoint
06° C
43° F
Humidity
46%
1hr Rain Fall
00.00 in.
24hr Rain Fall
00.00 in.
Sky Condition
Clear
VFR

METAR KI69 191657Z AUTO 19006KT 10SM CLR 18/06 A2995 RMK AO2 T01810062

FAA Disclaimer: The data displayed is for advisory purposes only and is not to be used for flight planning or operations.